Time;durP1;ratioP1;P1;durP2;ratioP2;P2;SDS_P1;SDS_P2;PMS_P1;PMS_P2;Temp;Humidity;BMP_temperature;BMP_pressure;BME280_temperature;BME280_humidity;BME280_pressure;Samples;Min_cycle;Max_cycle;Signal;HPM_P1;HPM_P2
2022/12/01 00:03:04;;;;;;;18.33;12.63;;;;;8.30;99442.00;;;;16558395;28;20211;-74
2022/12/01 00:11:10;;;;;;;22.73;15.70;;;;;8.40;99447.00;;;;16548824;28;20779;-74
2022/12/01 00:19:14;;;;;;;22.70;15.37;;;;;7.70;99455.00;;;;16542846;28;20714;-74
2022/12/01 00:27:16;;;;;;;21.23;15.80;;;;;8.20;99439.00;;;;16539983;28;20506;-74
2022/12/01 00:35:20;;;;;;;23.80;16.20;;;;;8.00;99445.00;;;;16558555;28;20227;-74
2022/12/01 00:43:23;;;;;;;21.97;14.90;;;;;8.80;99439.00;;;;16540816;28;20223;-76
2022/12/01 00:51:27;;;;;;;22.30;15.80;;;;;8.20;99448.00;;;;16572121;28;20926;-74
2022/12/01 00:59:30;;;;;;;24.00;15.10;;;;;8.70;99438.00;;;;16552692;28;20226;-74
2022/12/01 01:07:34;;;;;;;25.57;16.50;;;;;8.50;99438.00;;;;16545244;28;20295;-74
2022/12/01 01:15:36;;;;;;;26.30;18.23;;;;;8.80;99441.00;;;;16556855;28;20230;-75
2022/12/01 01:23:40;;;;;;;24.37;16.40;;;;;8.90;99445.00;;;;16551166;28;20228;-75
2022/12/01 01:31:42;;;;;;;29.50;17.80;;;;;8.80;99461.00;;;;16552445;28;20257;-73
2022/12/01 01:39:46;;;;;;;27.33;16.80;;;;;8.80;99463.00;;;;16562214;28;20234;-74
2022/12/01 01:47:51;;;;;;;22.30;15.63;;;;;8.60;99453.00;;;;16553417;28;20722;-74
2022/12/01 01:55:55;;;;;;;26.37;17.30;;;;;8.80;99452.00;;;;16560545;28;20223;-74
2022/12/01 02:03:57;;;;;;;24.73;15.90;;;;;8.70;99457.00;;;;16575414;28;20196;-74
2022/12/01 02:12:12;;;;;;;25.97;18.23;;;;;8.50;99448.00;;;;16550809;28;20636;-74
2022/12/01 02:20:37;;;;;;;27.27;17.40;;;;;8.10;99442.00;;;;16544516;28;20282;-74
2022/12/01 02:28:54;;;;;;;24.30;16.47;;;;;8.70;99453.00;;;;16560993;28;20705;-73
2022/12/01 02:37:02;;;;;;;23.87;16.80;;;;;8.70;99445.00;;;;16554036;28;20223;-73
2022/12/01 02:45:07;;;;;;;22.10;16.63;;;;;8.10;99444.00;;;;16554930;28;20251;-73
2022/12/01 02:53:14;;;;;;;23.40;15.17;;;;;8.30;99446.00;;;;16548183;28;20231;-73
2022/12/01 03:01:43;;;;;;;25.10;17.13;;;;;8.30;99449.00;;;;16563128;28;20473;-73
2022/12/01 03:09:53;;;;;;;24.13;16.30;;;;;8.40;99443.00;;;;16556319;28;20235;-73
2022/12/01 03:17:59;;;;;;;24.70;15.80;;;;;8.20;99437.00;;;;16561208;28;20242;-74
2022/12/01 03:26:06;;;;;;;23.20;16.70;;;;;8.70;99428.00;;;;16551729;28;20626;-74
2022/12/01 03:34:14;;;;;;;23.77;16.00;;;;;8.10;99432.00;;;;16558608;28;20314;-73
2022/12/01 03:42:22;;;;;;;27.00;17.80;;;;;8.30;99429.00;;;;16554768;28;20258;-73
2022/12/01 03:50:29;;;;;;;26.97;17.77;;;;;8.10;99440.00;;;;16553963;28;20360;-73
2022/12/01 03:58:36;;;;;;;24.87;17.20;;;;;8.20;99440.00;;;;16538342;28;20243;-73
2022/12/01 04:06:40;;;;;;;26.57;18.20;;;;;8.40;99444.00;;;;16552007;28;20686;-73
2022/12/01 04:14:44;;;;;;;27.30;18.13;;;;;8.20;99437.00;;;;16536690;28;20278;-74
2022/12/01 04:22:46;;;;;;;26.93;18.13;;;;;8.50;99439.00;;;;16549580;28;20269;-75
2022/12/01 04:30:50;;;;;;;26.50;18.63;;;;;8.30;99446.00;;;;16545133;28;20223;-75
2022/12/01 04:38:53;;;;;;;26.83;17.83;;;;;8.30;99437.00;;;;16563736;28;20211;-74
2022/12/01 04:46:57;;;;;;;25.73;18.40;;;;;7.90;99451.00;;;;16549458;28;20725;-74
2022/12/01 04:54:59;;;;;;;30.30;18.63;;;;;8.00;99455.00;;;;16564141;28;20674;-74
2022/12/01 05:03:03;;;;;;;29.30;17.70;;;;;8.30;99443.00;;;;16549396;28;20308;-74
2022/12/01 05:11:06;;;;;;;27.00;17.10;;;;;8.10;99452.00;;;;16553064;28;20239;-74
2022/12/01 05:27:30;;;;;;;25.57;16.60;;;;;7.50;99468.00;;;;16560773;28;20231;-74
2022/12/01 05:35:35;;;;;;;28.07;17.33;;;;;7.90;99468.00;;;;16586574;28;20707;-75
2022/12/01 05:43:37;;;;;;;26.90;17.00;;;;;7.70;99468.00;;;;16576029;28;20222;-74
2022/12/01 05:51:43;;;;;;;27.60;19.87;;;;;7.60;99461.00;;;;16581744;28;20230;-74
2022/12/01 05:59:45;;;;;;;29.53;19.17;;;;;7.70;99469.00;;;;16578230;28;20557;-74
2022/12/01 06:07:49;;;;;;;32.03;20.17;;;;;7.80;99470.00;;;;16576871;28;20638;-74
2022/12/01 06:15:58;;;;;;;31.67;20.47;;;;;8.00;99465.00;;;;16563566;28;20258;-75
2022/12/01 06:24:02;;;;;;;33.80;20.80;;;;;7.90;99475.00;;;;16576334;28;20191;-75
2022/12/01 06:32:05;;;;;;;33.30;22.70;;;;;8.00;99473.00;;;;16572063;28;20231;-77
2022/12/01 06:40:11;;;;;;;35.90;22.77;;;;;8.10;99487.00;;;;16572647;28;20275;-75
2022/12/01 06:48:13;;;;;;;30.00;21.03;;;;;7.90;99481.00;;;;16573010;28;20297;-73
2022/12/01 06:56:17;;;;;;;34.83;22.50;;;;;7.40;99492.00;;;;16575141;28;20230;-74
2022/12/01 07:04:20;;;;;;;41.63;20.00;;;;;7.70;99495.00;;;;16571678;28;20215;-73
2022/12/01 07:12:24;;;;;;;28.97;19.30;;;;;6.90;99518.00;;;;16578255;28;20589;-72
2022/12/01 07:20:26;;;;;;;34.53;21.60;;;;;7.50;99512.00;;;;16585403;28;20712;-72
2022/12/01 07:28:30;;;;;;;30.80;19.73;;;;;6.90;99516.00;;;;16549188;28;20229;-71
2022/12/01 07:36:33;;;;;;;33.93;22.33;;;;;7.10;99519.00;;;;16557754;28;20233;-72
2022/12/01 07:44:37;;;;;;;34.07;21.97;;;;;6.70;99516.00;;;;16552889;28;20203;-70
2022/12/01 07:52:40;;;;;;;31.97;21.47;;;;;7.20;99524.00;;;;16568178;28;20227;-71
2022/12/01 08:00:44;;;;;;;38.83;21.80;;;;;7.60;99522.00;;;;16576438;28;20373;-71
2022/12/01 08:08:46;;;;;;;31.57;21.60;;;;;7.70;99528.00;;;;16578354;28;20595;-71
2022/12/01 08:16:50;;;;;;;31.47;21.10;;;;;7.50;99542.00;;;;16555494;28;20600;-71
2022/12/01 08:24:53;;;;;;;32.70;21.53;;;;;7.50;99535.00;;;;16557750;28;20198;-72
2022/12/01 08:32:57;;;;;;;36.80;21.93;;;;;7.10;99551.00;;;;16579426;28;20239;-72
2022/12/01 08:41:01;;;;;;;31.80;20.90;;;;;7.00;99545.00;;;;16563289;28;20214;-73
2022/12/01 08:49:05;;;;;;;26.97;18.30;;;;;6.40;99549.00;;;;16580947;28;20823;-72
2022/12/01 08:57:08;;;;;;;31.70;19.73;;;;;6.50;99551.00;;;;16582752;28;20242;-73
2022/12/01 09:05:12;;;;;;;34.83;21.50;;;;;6.70;99548.00;;;;16579162;28;20205;-71
2022/12/01 09:13:14;;;;;;;31.47;19.23;;;;;6.70;99549.00;;;;16578003;28;20230;-71
2022/12/01 09:21:20;;;;;;;30.70;20.67;;;;;6.80;99549.00;;;;16580695;28;20222;-71
2022/12/01 09:29:24;;;;;;;29.03;18.90;;;;;7.00;99566.00;;;;16554628;28;20230;-71
2022/12/01 09:37:28;;;;;;;28.77;19.60;;;;;6.90;99560.00;;;;16563616;28;20226;-72
2022/12/01 09:45:34;;;;;;;30.90;20.20;;;;;7.00;99551.00;;;;16568383;28;20233;-71
2022/12/01 09:53:37;;;;;;;34.07;21.57;;;;;8.00;99540.00;;;;16567080;28;20230;-72
2022/12/01 10:01:45;;;;;;;33.53;21.37;;;;;7.10;99549.00;;;;16574933;28;20230;-71
2022/12/01 10:09:53;;;;;;;35.40;22.30;;;;;8.00;99531.00;;;;16581222;28;20238;-71
2022/12/01 10:18:03;;;;;;;34.03;20.67;;;;;7.10;99524.00;;;;16570750;28;20233;-70
2022/12/01 10:26:13;;;;;;;29.47;20.40;;;;;7.20;99510.00;;;;16579691;28;20245;-71
2022/12/01 10:34:18;;;;;;;28.20;20.83;;;;;7.10;99507.00;;;;16580765;28;20699;-71
2022/12/01 10:42:28;;;;;;;29.37;19.53;;;;;6.90;99507.00;;;;16577941;28;20616;-71
2022/12/01 10:50:31;;;;;;;30.07;19.00;;;;;7.60;99495.00;;;;16579466;28;20226;-71
2022/12/01 10:58:44;;;;;;;25.53;16.40;;;;;6.90;99497.00;;;;16582106;28;20235;-71
2022/12/01 11:06:49;;;;;;;30.20;18.80;;;;;6.90;99501.00;;;;16579893;28;20297;-71
2022/12/01 11:14:55;;;;;;;28.90;18.90;;;;;6.80;99493.00;;;;16581225;28;20285;-71
2022/12/01 11:23:24;;;;;;;31.23;17.90;;;;;7.10;99475.00;;;;16580430;28;20222;-71
2022/12/01 11:31:38;;;;;;;31.57;19.77;;;;;7.00;99467.00;;;;16577781;28;20308;-71
2022/12/01 11:39:43;;;;;;;27.03;20.83;;;;;7.20;99468.00;;;;16580141;28;20702;-71
2022/12/01 11:48:05;;;;;;;26.53;17.80;;;;;7.00;99462.00;;;;16566103;28;20725;-71
2022/12/01 11:56:19;;;;;;;28.03;18.50;;;;;7.30;99461.00;;;;16568769;28;20245;-71
2022/12/01 12:04:44;;;;;;;29.90;19.53;;;;;7.40;99443.00;;;;16577645;28;20206;-70
2022/12/01 12:12:58;;;;;;;26.43;17.23;;;;;7.70;99440.00;;;;16562413;28;20310;-70
2022/12/01 12:21:10;;;;;;;24.60;17.20;;;;;7.40;99437.00;;;;16571767;28;20213;-72
2022/12/01 12:29:24;;;;;;;27.03;18.53;;;;;7.60;99432.00;;;;16571347;28;20747;-72
2022/12/01 12:37:35;;;;;;;27.20;18.37;;;;;8.10;99416.00;;;;16556265;28;20218;-71
2022/12/01 12:45:46;;;;;;;31.40;20.40;;;;;8.10;99421.00;;;;16572687;28;20210;-72
2022/12/01 12:54:00;;;;;;;24.97;18.40;;;;;7.40;99419.00;;;;16572173;28;20229;-72
2022/12/01 13:02:10;;;;;;;26.30;18.80;;;;;7.40;99420.00;;;;16562176;28;20369;-72
2022/12/01 13:10:22;;;;;;;25.50;15.93;;;;;7.60;99418.00;;;;16583082;28;20821;-73
2022/12/01 13:18:34;;;;;;;22.57;17.80;;;;;8.30;99414.00;;;;16568053;28;20721;-72
2022/12/01 13:26:38;;;;;;;23.30;15.53;;;;;8.30;99404.00;;;;16547093;28;20351;-72
2022/12/01 13:34:44;;;;;;;24.93;18.17;;;;;8.50;99397.00;;;;16585948;28;20684;-72
2022/12/01 13:42:57;;;;;;;27.37;18.00;;;;;8.00;99397.00;;;;16582855;28;20223;-71
2022/12/01 13:51:01;;;;;;;26.53;17.70;;;;;8.10;99411.00;;;;16586007;28;20219;-71
2022/12/01 13:59:38;;;;;;;23.67;17.13;;;;;7.90;99399.00;;;;16583081;28;20227;-72
2022/12/01 14:07:41;;;;;;;25.23;17.27;;;;;8.20;99406.00;;;;16575669;28;20288;-72
2022/12/01 14:15:44;;;;;;;23.80;15.50;;;;;8.10;99401.00;;;;16582133;28;20263;-71
2022/12/01 14:24:01;;;;;;;29.43;16.00;;;;;7.60;99409.00;;;;16563313;28;20766;-71
2022/12/01 14:32:26;;;;;;;29.93;16.00;;;;;8.40;99398.00;;;;16575595;22;20591;-47
2022/12/01 14:40:30;;;;;;;25.03;16.10;;;;;7.90;99390.00;;;;16557581;28;20869;-48
2022/12/01 14:48:37;;;;;;;22.43;15.10;;;;;8.00;99388.00;;;;16553109;28;20225;-48
2022/12/01 14:56:42;;;;;;;24.10;17.00;;;;;7.70;99393.00;;;;16559019;28;20233;-49
2022/12/01 15:05:08;;;;;;;26.07;16.83;;;;;8.20;99393.00;;;;16575594;28;20222;-49
2022/12/01 15:13:16;;;;;;;23.47;16.87;;;;;7.80;99395.00;;;;16561751;28;20227;-48
2022/12/01 15:21:22;;;;;;;23.63;16.70;;;;;7.70;99395.00;;;;16530082;28;20220;-48
2022/12/01 15:29:27;;;;;;;27.00;17.83;;;;;8.20;99393.00;;;;16538128;28;20230;-48
2022/12/01 15:37:39;;;;;;;26.03;18.47;;;;;8.20;99390.00;;;;16572853;28;20231;-49
2022/12/01 15:45:46;;;;;;;24.70;16.87;;;;;9.00;99388.00;;;;16573829;28;20222;-48
2022/12/01 15:53:52;;;;;;;25.53;17.80;;;;;8.20;99399.00;;;;16589416;28;20727;-48
2022/12/01 16:01:55;;;;;;;25.67;17.50;;;;;8.90;99396.00;;;;16541128;28;20223;-49
2022/12/01 16:10:01;;;;;;;27.20;17.83;;;;;8.50;99393.00;;;;16533566;28;20231;-49
2022/12/01 16:18:24;;;;;;;25.63;18.33;;;;;9.00;99394.00;;;;16529030;28;20313;-47
2022/12/01 16:26:29;;;;;;;28.10;19.90;;;;;8.50;99389.00;;;;16528249;28;20218;-48
2022/12/01 16:34:31;;;;;;;30.60;19.37;;;;;8.10;99392.00;;;;16553045;28;20226;-49
2022/12/01 16:42:35;;;;;;;33.00;23.60;;;;;8.20;99387.00;;;;16533221;28;20369;-49
2022/12/01 16:50:38;;;;;;;22.83;17.30;;;;;7.90;99400.00;;;;16528680;28;20230;-49
2022/12/01 16:58:43;;;;;;;30.43;18.30;;;;;7.90;99393.00;;;;16539301;28;20223;-48
2022/12/01 17:06:46;;;;;;;27.57;20.07;;;;;8.00;99387.00;;;;16538383;28;20226;-48
2022/12/01 17:14:50;;;;;;;25.33;18.10;;;;;7.60;99398.00;;;;16557987;28;20264;-48
2022/12/01 17:22:52;;;;;;;26.83;18.87;;;;;7.80;99396.00;;;;16551560;28;20196;-48
2022/12/01 17:31:00;;;;;;;29.00;17.60;;;;;7.60;99401.00;;;;16554400;28;20238;-48
2022/12/01 17:39:03;;;;;;;27.83;19.07;;;;;7.80;99402.00;;;;16556248;28;20313;-49
2022/12/01 17:47:07;;;;;;;30.23;20.43;;;;;7.90;99403.00;;;;16555907;28;20354;-49
2022/12/01 17:55:10;;;;;;;31.47;20.23;;;;;7.70;99401.00;;;;16559110;28;20288;-48
2022/12/01 18:03:13;;;;;;;31.27;20.93;;;;;7.70;99401.00;;;;16565676;28;20278;-48
2022/12/01 18:11:17;;;;;;;29.03;21.47;;;;;7.80;99410.00;;;;16540610;28;20373;-47
2022/12/01 18:19:20;;;;;;;31.50;19.13;;;;;7.60;99413.00;;;;16579309;28;20313;-49
2022/12/01 18:27:24;;;;;;;27.73;19.20;;;;;7.50;99401.00;;;;16549982;28;20893;-49
2022/12/01 18:35:28;;;;;;;26.07;18.00;;;;;7.50;99413.00;;;;16555740;28;20310;-47
2022/12/01 18:43:32;;;;;;;29.63;19.73;;;;;7.80;99399.00;;;;16557369;28;20214;-47
2022/12/01 18:51:37;;;;;;;27.07;18.37;;;;;7.90;99394.00;;;;16538816;28;20373;-48
2022/12/01 18:59:40;;;;;;;25.47;18.53;;;;;7.60;99389.00;;;;16558260;28;20254;-49
2022/12/01 19:07:44;;;;;;;27.57;19.53;;;;;8.00;99372.00;;;;16582476;28;20588;-48
2022/12/01 19:15:46;;;;;;;29.23;17.67;;;;;7.80;99376.00;;;;16579130;28;20228;-48
2022/12/01 19:23:50;;;;;;;28.03;17.60;;;;;7.80;99383.00;;;;16576030;28;20225;-48
2022/12/01 19:31:53;;;;;;;25.47;19.10;;;;;7.70;99382.00;;;;16564753;28;20398;-48
2022/12/01 19:39:57;;;;;;;29.47;19.90;;;;;7.90;99374.00;;;;16566665;28;20387;-48
2022/12/01 19:47:59;;;;;;;25.87;18.20;;;;;7.60;99384.00;;;;16537089;28;20243;-48
2022/12/01 19:56:04;;;;;;;25.00;18.50;;;;;7.60;99387.00;;;;16525149;28;20840;-49
2022/12/01 20:04:07;;;;;;;27.57;20.13;;;;;7.80;99383.00;;;;16531181;28;20199;-48
2022/12/01 20:12:13;;;;;;;26.83;18.80;;;;;7.70;99387.00;;;;16523325;28;20274;-48
2022/12/01 20:20:16;;;;;;;26.40;19.43;;;;;7.60;99379.00;;;;16557862;28;20341;-49
2022/12/01 20:28:20;;;;;;;30.10;20.63;;;;;7.80;99383.00;;;;16558504;28;20245;-48
2022/12/01 20:36:23;;;;;;;28.67;19.80;;;;;7.80;99382.00;;;;16544616;28;20229;-49
2022/12/01 20:44:27;;;;;;;24.87;18.37;;;;;7.80;99384.00;;;;16541650;28;20255;-48
2022/12/01 20:52:29;;;;;;;29.47;20.10;;;;;8.00;99382.00;;;;16534540;28;20226;-48
2022/12/01 21:00:33;;;;;;;30.30;19.07;;;;;7.70;99384.00;;;;16539374;28;20227;-49
2022/12/01 21:08:37;;;;;;;23.93;17.83;;;;;8.00;99374.00;;;;16517279;28;20722;-50
2022/12/01 21:16:41;;;;;;;34.13;23.47;;;;;8.10;99363.00;;;;16520058;28;20759;-49
2022/12/01 21:24:44;;;;;;;34.27;20.17;;;;;7.60;99373.00;;;;16543584;28;20284;-47
2022/12/01 21:32:48;;;;;;;29.80;20.97;;;;;7.90;99354.00;;;;16524758;28;20710;-48
2022/12/01 21:40:51;;;;;;;25.97;18.77;;;;;7.70;99357.00;;;;16515975;28;20709;-49
2022/12/01 21:48:55;;;;;;;32.33;21.03;;;;;7.50;99363.00;;;;16518058;28;20238;-47
2022/12/01 21:56:58;;;;;;;28.47;20.20;;;;;7.60;99358.00;;;;16537381;28;20596;-48
2022/12/01 22:05:02;;;;;;;30.50;19.93;;;;;7.70;99357.00;;;;16537571;28;20231;-48
2022/12/01 22:13:09;;;;;;;29.23;19.60;;;;;8.10;99342.00;;;;16549090;28;20302;-48
2022/12/01 22:21:39;;;;;;;30.77;21.80;;;;;7.70;99344.00;;;;16571978;28;20226;-49
2022/12/01 22:29:43;;;;;;;30.00;20.60;;;;;7.90;99339.00;;;;16562211;28;20788;-49
2022/12/01 22:37:49;;;;;;;29.33;21.60;;;;;7.80;99344.00;;;;16553516;28;20702;-49
2022/12/01 22:46:01;;;;;;;29.07;19.60;;;;;7.90;99339.00;;;;16576969;28;20268;-48
2022/12/01 22:54:22;;;;;;;31.13;20.20;;;;;7.70;99330.00;;;;16559218;28;20277;-48
2022/12/01 23:02:27;;;;;;;32.20;21.70;;;;;7.60;99332.00;;;;16569565;28;20222;-49
2022/12/01 23:10:33;;;;;;;31.50;20.20;;;;;7.70;99315.00;;;;16542365;28;20234;-48
2022/12/01 23:18:36;;;;;;;30.90;20.80;;;;;7.80;99322.00;;;;16539551;28;20227;-48
2022/12/01 23:26:40;;;;;;;30.93;19.83;;;;;7.80;99317.00;;;;16543251;28;20227;-49
2022/12/01 23:34:42;;;;;;;31.30;20.67;;;;;8.00;99322.00;;;;16548010;28;20298;-48
2022/12/01 23:42:46;;;;;;;33.33;21.67;;;;;7.70;99299.00;;;;16544014;28;20224;-48
2022/12/01 23:50:51;;;;;;;29.80;20.67;;;;;7.80;99308.00;;;;16541574;28;20255;-48
2022/12/01 23:58:56;;;;;;;34.20;21.67;;;;;7.70;99296.00;;;;16539503;28;20735;-48
